Estación Meteorológica Peña el Pijo (Robertgarden) [ 01/30/23 15:30:45 CET ]

Fecha Hora Presion(HPa) Temp (°C) Humedad % Rocio (°C) Viento ( m/s) Direccion Lluvia 1Hora(mm) Lluvia 24H(mm) LLuvia Total(mm)
2010-Jul-06 01:01:17 1017.500 16.8 64 9.9         125.87
2010-Jul-06 02:01:11 1017.500 15.3 70 9.9         125.87
2010-Jul-06 03:03:18 1017.500 14.4 73 9.6         125.87
2010-Jul-06 04:01:13 1017.300 13.8 76 9.6         125.87
2010-Jul-06 05:01:17 1017.100 13.0 79 9.4         125.87
2010-Jul-06 06:01:14 1016.800 12.6 81 9.4         125.87
2010-Jul-06 07:01:11 1016.900 12.2 83 9.4         125.87
2010-Jul-06 08:01:11 1017.100 14.3 82 11.3         125.87
2010-Jul-06 09:01:18 1017.000 20.8 63 13.5         125.87
2010-Jul-06 10:01:12 1017.100 26.8 42 12.8         125.87
2010-Jul-06 11:01:16 1016.900 30.3 31 11.3         125.87
2010-Jul-06 12:01:14 1017.200 31.5 21 6.5         125.87
2010-Jul-06 13:01:17 1016.700 33.6 19 6.6         125.87
2010-Jul-06 14:01:11 1016.600 33.8 23 9.6         125.87
2010-Jul-06 15:01:17 1016.100 34.8 21 9.2         125.87
2010-Jul-06 16:01:19 1015.900 34.1 23 9.8         125.87
2010-Jul-06 17:01:17 1015.600 34.9 23 10.5 0.7 NE     125.87
2010-Jul-06 18:01:12 1015.100 34.6 24 10.8         125.87
2010-Jul-06 19:01:14 1014.800 32.5 27 10.9         125.87
2010-Jul-06 20:01:10 1014.900 30.2 32 11.6         125.87
2010-Jul-06 21:01:11 1015.700 26.9 39 11.8         125.87
2010-Jul-06 22:01:12 1016.000 24.1 46 11.7         125.87
2010-Jul-06 23:01:18 1016.900 22.4 50 11.5         125.87

Temperatura Máxima:34°    Temperatura Mínima:12°
Presión Máxima:1017.500 Hpa    Presión Mínima:1014.800 Hpa


Volver